Time;durP1;ratioP1;P1;durP2;ratioP2;P2;SDS_P1;SDS_P2;PMS_P1;PMS_P2;Temp;Humidity;BMP_temperature;BMP_pressure;BME280_temperature;BME280_humidity;BME280_pressure;Samples;Min_cycle;Max_cycle;Signal;HPM_P1;HPM_P2
2023/06/13 00:01:48;;;;;;;6.78;4.97;;;;;;;23.48;33.49;101116.50;3580218;39;20052;-70
2023/06/13 00:04:21;;;;;;;5.45;4.80;;;;;;;23.45;33.33;101116.84;3582153;40;20303;-70
2023/06/13 00:06:53;;;;;;;8.05;5.47;;;;;;;23.46;33.37;101115.81;3582502;40;20062;-70
2023/06/13 00:09:18;;;;;;;10.35;5.80;;;;;;;23.43;33.62;101113.41;3572413;40;20055;-70
2023/06/13 00:11:49;;;;;;;7.63;5.32;;;;;;;23.34;33.62;101104.31;3582256;39;20063;-70
2023/06/13 00:14:17;;;;;;;6.20;5.38;;;;;;;23.34;33.93;101110.69;3583673;39;20411;-70
2023/06/13 00:16:43;;;;;;;6.88;5.15;;;;;;;23.26;33.93;101107.09;3575973;40;20056;-70
2023/06/13 00:19:11;;;;;;;6.50;5.00;;;;;;;23.14;34.45;101099.19;3579686;40;20295;-70
2023/06/13 00:21:38;;;;;;;6.75;4.90;;;;;;;23.16;34.14;101113.59;3581546;40;20472;-70
2023/06/13 00:24:05;;;;;;;6.65;4.95;;;;;;;22.93;34.18;101080.50;3582105;40;20128;-70
2023/06/13 00:26:30;;;;;;;9.25;4.50;;;;;;;23.04;33.95;101109.47;3582026;40;20079;-70
2023/06/13 00:28:56;;;;;;;7.55;4.75;;;;;;;22.98;34.68;101101.06;3583413;39;20407;-70
2023/06/13 00:31:21;;;;;;;5.20;4.68;;;;;;;22.86;34.81;101089.50;3581549;40;20067;-70
2023/06/13 00:33:50;;;;;;;6.28;4.53;;;;;;;22.85;35.10;101101.50;3583114;40;20060;-70
2023/06/13 00:36:20;;;;;;;5.68;4.82;;;;;;;22.78;34.67;101093.09;3583490;40;20148;-70
2023/06/13 00:38:49;;;;;;;5.70;4.70;;;;;;;22.74;34.82;101096.34;3582098;40;20317;-70
2023/06/13 00:41:15;;;;;;;7.60;4.95;;;;;;;22.33;35.07;101044.16;3583056;40;20048;-70
2023/06/13 00:43:41;;;;;;;5.22;4.63;;;;;;;22.61;35.82;101099.56;3585234;39;20126;-70
2023/06/13 00:46:06;;;;;;;6.55;4.97;;;;;;;22.52;35.45;101092.34;3580765;40;20334;-70
2023/06/13 00:48:33;;;;;;;8.93;5.78;;;;;;;22.50;35.38;101100.72;3582079;40;20135;-70
2023/06/13 00:51:02;;;;;;;5.57;4.95;;;;;;;22.45;35.67;101098.50;3582044;40;20082;-69
2023/06/13 00:53:31;;;;;;;6.93;5.90;;;;;;;22.39;36.30;101093.69;3581873;40;20060;-70
2023/06/13 00:55:59;;;;;;;7.30;5.60;;;;;;;22.14;36.44;101072.66;3581832;40;20056;-70
2023/06/13 00:58:25;;;;;;;5.78;5.18;;;;;;;22.28;37.14;101098.59;3582645;39;20059;-70
2023/06/13 01:00:54;;;;;;;9.77;4.97;;;;;;;22.20;36.40;101099.41;3582403;40;20067;-70
2023/06/13 01:03:20;;;;;;;8.38;4.93;;;;;;;21.81;37.25;101042.38;3584693;40;20467;-70
2023/06/13 01:05:47;;;;;;;5.68;4.38;;;;;;;21.47;36.99;100993.97;3583027;39;20060;-70
2023/06/13 01:08:22;;;;;;;5.97;4.93;;;;;;;21.98;37.38;101093.47;3584563;39;20064;-69
2023/06/13 01:11:01;;;;;;;6.85;4.60;;;;;;;21.85;36.93;101087.56;3583543;39;20060;-70
2023/06/13 01:13:48;;;;;;;5.20;4.47;;;;;;;21.83;37.63;101089.59;3576404;40;20052;-70
2023/06/13 01:16:43;;;;;;;8.73;4.40;;;;;;;21.74;37.99;101088.69;3581438;40;20060;-70
2023/06/13 01:19:39;;;;;;;6.28;4.70;;;;;;;21.67;38.16;101081.28;3580796;40;20436;-69
2023/06/13 01:22:13;;;;;;;6.38;4.32;;;;;;;21.58;38.04;101077.63;3580576;40;20047;-69
2023/06/13 01:25:09;;;;;;;5.47;4.20;;;;;;;21.52;38.45;101094.69;3582230;39;20254;-70
2023/06/13 01:27:39;;;;;;;5.88;3.85;;;;;;;21.47;38.75;101081.50;3581418;40;20350;-70
2023/06/13 01:30:07;;;;;;;7.95;4.35;;;;;;;20.92;38.56;101005.16;3580024;40;20117;-70
2023/06/13 01:32:35;;;;;;;4.95;4.45;;;;;;;21.39;38.37;101089.63;3583099;40;20048;-70
2023/06/13 01:35:03;;;;;;;6.85;4.28;;;;;;;21.28;39.04;101081.63;3580718;40;20056;-69
2023/06/13 01:37:29;;;;;;;5.82;4.03;;;;;;;21.24;38.53;101078.38;3582466;40;20048;-70
2023/06/13 01:39:55;;;;;;;6.10;4.30;;;;;;;21.22;38.65;101082.28;3585258;39;20056;-69
2023/06/13 01:42:21;;;;;;;7.07;4.50;;;;;;;21.15;38.65;101078.44;3583345;39;20063;-69
2023/06/13 01:44:47;;;;;;;4.68;4.18;;;;;;;21.10;38.78;101089.88;3583520;40;20125;-68
2023/06/13 01:47:30;;;;;;;5.57;4.18;;;;;;;21.05;39.28;101093.06;3581182;40;20091;-69
2023/06/13 01:50:45;;;;;;;6.60;4.70;;;;;;;20.99;39.52;101090.94;3580315;40;20064;-69
2023/06/13 01:53:49;;;;;;;6.57;4.35;;;;;;;20.19;39.84;100964.28;3583739;39;20311;-69
2023/06/13 01:56:22;;;;;;;5.88;4.18;;;;;;;20.88;39.59;101083.00;3578982;40;20065;-69
2023/06/13 01:58:54;;;;;;;7.93;4.47;;;;;;;20.87;39.23;101081.28;3581109;40;20060;-69
2023/06/13 02:01:21;;;;;;;4.50;4.10;;;;;;;20.84;40.33;101078.88;3580466;40;20323;-69
2023/06/13 02:03:47;;;;;;;5.53;4.40;;;;;;;20.81;40.12;101076.44;3583570;39;20055;-69
2023/06/13 02:06:13;;;;;;;4.85;4.20;;;;;;;20.76;40.15;101076.03;3579812;40;20055;-69
2023/06/13 02:08:38;;;;;;;4.65;4.13;;;;;;;20.70;39.58;101069.31;3580593;39;20048;-69
2023/06/13 02:11:04;;;;;;;4.45;3.92;;;;;;;20.69;39.26;101072.22;3582322;39;20052;-67
2023/06/13 02:13:30;;;;;;;7.75;4.28;;;;;;;19.93;39.97;100954.09;3580022;40;20063;-69
2023/06/13 02:15:55;;;;;;;5.55;4.25;;;;;;;20.55;40.60;101068.13;3579070;40;20071;-66
2023/06/13 02:18:21;;;;;;;9.60;4.38;;;;;;;20.55;41.04;101076.31;3579861;40;20052;-67
2023/06/13 02:20:46;;;;;;;4.50;4.10;;;;;;;20.50;41.39;101079.50;3581039;39;20399;-68
2023/06/13 02:23:12;;;;;;;6.22;4.18;;;;;;;20.45;40.75;101084.53;3583941;40;20058;-67
2023/06/13 02:25:38;;;;;;;5.53;4.30;;;;;;;20.44;40.60;101076.50;3581546;39;20068;-66
2023/06/13 02:28:04;;;;;;;6.10;4.13;;;;;;;20.40;40.81;101075.97;3580087;40;20173;-66
2023/06/13 02:30:29;;;;;;;6.60;4.30;;;;;;;20.36;40.54;101080.00;3581786;40;20052;-66
2023/06/13 02:32:55;;;;;;;5.35;4.20;;;;;;;20.30;41.50;101078.75;3581959;40;20117;-66
2023/06/13 02:35:23;;;;;;;6.93;4.45;;;;;;;20.30;40.89;101072.44;3581351;39;20283;-65
2023/06/13 02:37:55;;;;;;;4.75;4.25;;;;;;;20.27;41.37;101078.19;3581428;40;20060;-66
2023/06/13 02:40:23;;;;;;;7.07;4.05;;;;;;;20.26;41.30;101076.47;3583542;40;20144;-66
2023/06/13 02:42:52;;;;;;;5.30;4.30;;;;;;;20.19;40.92;101076.22;3583466;40;20578;-67
2023/06/13 02:45:18;;;;;;;5.38;4.18;;;;;;;19.97;41.28;101050.16;3580997;40;20117;-66
2023/06/13 02:47:44;;;;;;;7.13;4.40;;;;;;;20.14;41.42;101086.75;3575516;40;20353;-66
2023/06/13 02:50:10;;;;;;;7.65;4.70;;;;;;;20.11;41.58;101093.34;3578506;39;20141;-66
2023/06/13 02:52:37;;;;;;;7.20;4.15;;;;;;;20.10;41.32;101079.84;3581974;40;20058;-66
2023/06/13 02:55:08;;;;;;;5.18;4.43;;;;;;;20.07;41.97;101088.31;3580461;40;20249;-67
2023/06/13 02:57:36;;;;;;;7.82;4.60;;;;;;;19.90;42.32;101065.44;3571133;39;20059;-66
2023/06/13 03:00:09;;;;;;;5.72;4.60;;;;;;;20.01;42.20;101081.59;3580932;39;20068;-66
2023/06/13 03:02:37;;;;;;;7.40;4.55;;;;;;;19.97;41.77;101088.38;3581450;39;20120;-66
2023/06/13 03:05:08;;;;;;;6.50;4.53;;;;;;;19.94;41.88;101085.94;3581155;40;20524;-66
2023/06/13 03:07:42;;;;;;;7.90;4.80;;;;;;;19.90;41.90;101084.53;3580810;40;20056;-68
2023/06/13 03:10:10;;;;;;;7.25;4.75;;;;;;;19.85;42.66;101082.25;3551740;40;20214;-67
2023/06/13 03:12:37;;;;;;;7.00;4.57;;;;;;;19.82;42.88;101087.13;3552530;40;20279;-68
2023/06/13 03:15:03;;;;;;;7.07;4.65;;;;;;;19.77;42.75;101084.84;3544443;40;20040;-68
2023/06/13 03:17:29;;;;;;;4.82;4.32;;;;;;;19.74;42.67;101085.16;3559084;40;20056;-68
2023/06/13 03:19:55;;;;;;;7.47;4.38;;;;;;;19.68;43.35;101085.75;3582992;39;20448;-68
2023/06/13 03:22:20;;;;;;;5.82;4.30;;;;;;;19.66;43.50;101088.63;3580962;40;20048;-69
2023/06/13 03:24:46;;;;;;;7.03;4.85;;;;;;;19.60;42.38;101085.56;3579587;40;20059;-68
2023/06/13 03:27:12;;;;;;;5.75;4.95;;;;;;;19.56;43.71;101087.72;3579141;40;20313;-68
2023/06/13 03:29:40;;;;;;;5.78;4.50;;;;;;;19.52;43.63;101083.59;3582618;39;20055;-68
2023/06/13 03:32:10;;;;;;;9.93;5.00;;;;;;;19.44;43.05;101078.88;3578974;39;20107;-69
2023/06/13 03:34:39;;;;;;;6.75;4.93;;;;;;;19.00;43.88;101015.81;3578621;40;20373;-69
2023/06/13 03:37:08;;;;;;;7.15;4.90;;;;;;;19.38;43.50;101084.91;3580998;40;20072;-68
2023/06/13 03:39:35;;;;;;;5.85;4.90;;;;;;;19.06;43.87;101030.75;3581201;40;20048;-69
2023/06/13 03:42:02;;;;;;;11.77;4.93;;;;;;;19.24;43.69;101083.47;3579035;40;20309;-68
2023/06/13 03:44:28;;;;;;;8.90;5.03;;;;;;;19.23;43.74;101083.63;3578448;40;20064;-67
2023/06/13 03:46:55;;;;;;;6.15;5.07;;;;;;;19.18;44.32;101073.16;3578831;39;20333;-67
2023/06/13 03:49:24;;;;;;;6.22;4.95;;;;;;;19.16;44.06;101075.19;3580690;39;20101;-66
2023/06/13 03:51:51;;;;;;;6.13;5.22;;;;;;;19.16;44.50;101074.34;3582068;40;20492;-67
2023/06/13 03:54:23;;;;;;;7.22;4.80;;;;;;;19.13;45.11;101070.03;3581017;39;20055;-67
2023/06/13 03:56:49;;;;;;;6.45;4.60;;;;;;;19.11;44.91;101072.03;3581371;39;20054;-67
2023/06/13 03:59:18;;;;;;;6.25;5.10;;;;;;;19.09;45.60;101076.75;3579268;39;20064;-67
2023/06/13 04:01:44;;;;;;;7.75;5.03;;;;;;;19.10;45.37;101075.75;3579153;40;20060;-67
2023/06/13 04:04:09;;;;;;;5.43;4.68;;;;;;;19.12;45.71;101079.19;3580744;40;20067;-67
2023/06/13 04:06:36;;;;;;;5.50;4.60;;;;;;;19.12;45.62;101078.31;3577625;40;20493;-67
2023/06/13 04:09:05;;;;;;;6.60;4.95;;;;;;;19.02;45.43;101056.53;3579134;40;20048;-67
2023/06/13 04:11:34;;;;;;;6.45;4.53;;;;;;;19.14;45.59;101077.19;3579593;39;20083;-67
2023/06/13 04:14:01;;;;;;;5.55;4.75;;;;;;;19.14;45.97;101077.19;3570462;40;20396;-67
2023/06/13 04:16:28;;;;;;;8.07;5.22;;;;;;;19.16;45.28;101085.22;3577556;40;20457;-67
2023/06/13 04:18:56;;;;;;;6.32;4.57;;;;;;;19.15;45.44;101078.91;3578426;40;20052;-67
2023/06/13 04:21:24;;;;;;;8.70;4.80;;;;;;;19.07;45.79;101070.59;3577343;40;20472;-67
2023/06/13 04:23:54;;;;;;;5.88;4.95;;;;;;;19.16;46.02;101085.22;3577658;40;20060;-66
2023/06/13 04:26:20;;;;;;;5.45;4.90;;;;;;;18.91;46.51;101032.19;3577762;40;20323;-66
2023/06/13 04:28:48;;;;;;;8.23;5.13;;;;;;;18.88;46.71;101024.28;3579893;39;20064;-65
2023/06/13 04:31:14;;;;;;;5.10;4.60;;;;;;;19.23;46.16;101081.78;3581145;39;20052;-67
2023/06/13 04:33:44;;;;;;;7.28;5.60;;;;;;;19.21;46.05;101081.03;3576257;40;20049;-68
2023/06/13 04:36:12;;;;;;;5.78;5.18;;;;;;;19.28;45.94;101089.50;3576182;40;20148;-66
2023/06/13 04:38:39;;;;;;;9.55;5.18;;;;;;;19.24;45.79;101091.66;3580781;40;20058;-66
2023/06/13 04:41:13;;;;;;;6.82;4.82;;;;;;;19.28;45.90;101097.69;3578361;39;20462;-66
2023/06/13 04:43:41;;;;;;;7.40;5.32;;;;;;;19.22;46.15;101087.38;3578253;40;20052;-66
2023/06/13 04:46:07;;;;;;;5.88;5.03;;;;;;;19.32;45.65;101098.28;3578440;40;20402;-66
2023/06/13 04:48:35;;;;;;;7.07;5.30;;;;;;;19.37;45.64;101104.13;3578165;40;20102;-67
2023/06/13 04:51:04;;;;;;;9.77;5.38;;;;;;;19.18;46.01;101067.69;3581169;39;20060;-66
2023/06/13 04:53:30;;;;;;;7.18;5.03;;;;;;;18.90;46.10;101008.66;3576684;40;20449;-67
2023/06/13 04:55:57;;;;;;;6.47;5.13;;;;;;;19.46;45.99;101097.81;3583028;39;20058;-67
2023/06/13 04:58:23;;;;;;;8.25;5.20;;;;;;;19.47;45.41;101104.97;3579607;40;20062;-67
2023/06/13 05:00:51;;;;;;;9.13;5.60;;;;;;;19.49;45.29;101102.97;3577648;39;20083;-68
2023/06/13 05:03:19;;;;;;;7.15;5.05;;;;;;;19.32;45.16;101074.59;3585138;40;20343;-67
2023/06/13 05:05:45;;;;;;;7.22;5.63;;;;;;;19.57;45.76;101111.28;3578583;40;20060;-67
2023/06/13 05:08:13;;;;;;;6.55;4.90;;;;;;;19.61;44.80;101112.72;3578381;40;20420;-68
2023/06/13 05:10:41;;;;;;;7.93;5.47;;;;;;;19.58;45.26;101096.63;3582643;39;20063;-66
2023/06/13 05:13:07;;;;;;;7.22;5.18;;;;;;;19.71;45.28;101113.56;3581836;40;20559;-66
2023/06/13 05:15:33;;;;;;;7.72;5.40;;;;;;;19.47;45.09;101069.53;3578772;40;20060;-66
2023/06/13 05:17:58;;;;;;;7.80;5.57;;;;;;;19.83;44.25;101121.59;3578768;40;20070;-66
2023/06/13 05:20:26;;;;;;;7.05;5.22;;;;;;;19.88;44.55;101120.13;3581270;40;20056;-67
2023/06/13 05:22:53;;;;;;;6.15;5.03;;;;;;;19.93;44.46;101116.97;3579162;40;20050;-67
2023/06/13 05:25:20;;;;;;;7.53;4.93;;;;;;;19.97;44.81;101112.94;3581150;39;20048;-68
2023/06/13 05:27:47;;;;;;;7.40;5.63;;;;;;;20.04;44.43;101126.84;3578616;40;20059;-67
2023/06/13 05:30:14;;;;;;;5.80;4.95;;;;;;;20.11;44.84;101120.66;3579120;40;20350;-68
2023/06/13 05:32:41;;;;;;;7.32;4.93;;;;;;;20.15;44.65;101122.06;3579635;40;20052;-67
2023/06/13 05:35:10;;;;;;;5.47;4.57;;;;;;;20.23;44.19;101123.16;3578870;40;20156;-67
2023/06/13 05:37:39;;;;;;;7.45;5.20;;;;;;;20.30;43.95;101116.13;3579329;39;20059;-67
2023/06/13 05:40:07;;;;;;;6.78;5.30;;;;;;;20.11;43.63;101082.44;3578231;40;20129;-68
2023/06/13 05:42:36;;;;;;;5.82;5.28;;;;;;;20.36;43.26;101118.22;3577830;40;20055;-67
2023/06/13 05:45:04;;;;;;;7.68;5.30;;;;;;;20.44;43.39;101125.66;3577842;40;20134;-67
2023/06/13 05:47:30;;;;;;;7.40;5.32;;;;;;;20.46;42.97;101113.59;3579321;39;20059;-67
2023/06/13 05:49:55;;;;;;;7.65;5.13;;;;;;;20.54;43.11;101130.09;3578957;39;20055;-67
2023/06/13 05:52:21;;;;;;;7.78;5.45;;;;;;;20.61;42.69;101128.50;3582698;39;20056;-67
2023/06/13 05:54:47;;;;;;;8.65;5.70;;;;;;;20.58;42.72;101112.41;3581664;40;20059;-67
2023/06/13 05:57:13;;;;;;;6.47;5.38;;;;;;;20.56;43.38;101097.19;3577843;40;20070;-66
2023/06/13 05:59:39;;;;;;;6.68;4.85;;;;;;;20.82;43.37;101121.88;3577492;40;20160;-66
2023/06/13 06:02:05;;;;;;;7.32;5.07;;;;;;;20.89;42.34;101117.50;3577429;40;20056;-67
2023/06/13 06:04:31;;;;;;;7.53;5.05;;;;;;;20.99;43.04;101121.00;3581237;40;20050;-67
2023/06/13 06:06:56;;;;;;;6.55;5.30;;;;;;;21.10;42.29;101128.16;3578381;39;20056;-69
2023/06/13 06:09:22;;;;;;;8.65;5.40;;;;;;;21.22;42.51;101135.09;3577544;40;20060;-68
2023/06/13 06:11:47;;;;;;;9.05;5.13;;;;;;;21.09;42.16;101086.28;3577730;40;20386;-68
2023/06/13 06:14:13;;;;;;;7.30;5.18;;;;;;;21.46;41.61;101145.41;3577560;40;20055;-68
2023/06/13 06:16:39;;;;;;;8.00;5.20;;;;;;;21.55;41.77;101133.53;3577952;40;20052;-69
2023/06/13 06:19:04;;;;;;;7.18;5.10;;;;;;;20.99;41.87;101025.34;3580662;40;20338;-68
2023/06/13 06:21:30;;;;;;;7.88;5.80;;;;;;;21.81;41.48;101138.16;3578592;39;20062;-69
2023/06/13 06:23:57;;;;;;;7.30;5.22;;;;;;;21.92;40.93;101134.31;3577753;40;20056;-68
2023/06/13 06:26:22;;;;;;;10.02;5.13;;;;;;;22.07;40.63;101132.66;3579543;40;20052;-68
2023/06/13 06:28:48;;;;;;;8.95;5.18;;;;;;;22.02;40.60;101099.47;3577380;40;20152;-67
2023/06/13 06:31:14;;;;;;;10.80;5.60;;;;;;;22.41;40.13;101129.13;3580717;39;20087;-68
2023/06/13 06:33:39;;;;;;;8.98;5.43;;;;;;;21.86;39.76;101012.66;3577695;39;20271;-68
2023/06/13 06:36:05;;;;;;;7.18;5.20;;;;;;;22.71;39.26;101141.41;3577695;40;20211;-68
2023/06/13 06:38:30;;;;;;;8.27;5.32;;;;;;;22.80;39.41;101128.56;3577289;40;20060;-68
2023/06/13 06:40:56;;;;;;;7.63;5.20;;;;;;;22.97;39.39;101132.25;3577007;40;20530;-68
2023/06/13 06:43:22;;;;;;;6.75;4.88;;;;;;;23.10;39.49;101127.97;3578836;39;20052;-68
2023/06/13 06:45:47;;;;;;;9.23;5.18;;;;;;;23.07;38.22;101106.38;3577510;39;20073;-69
2023/06/13 06:48:13;;;;;;;7.93;5.28;;;;;;;23.34;38.77;101132.66;3576549;39;20079;-68
2023/06/13 06:50:38;;;;;;;7.13;5.20;;;;;;;23.54;38.57;101126.81;3580685;40;20112;-68
2023/06/13 06:53:04;;;;;;;11.35;5.65;;;;;;;23.67;37.73;101126.28;3579983;40;20339;-68
2023/06/13 06:55:30;;;;;;;6.88;4.82;;;;;;;23.72;38.01;101124.75;3580197;40;20052;-68
2023/06/13 06:57:56;;;;;;;8.55;5.10;;;;;;;23.78;37.41;101124.03;3577012;40;20048;-68
2023/06/13 07:00:23;;;;;;;8.45;4.88;;;;;;;23.85;37.14;101107.75;3579040;39;20053;-68
2023/06/13 07:02:49;;;;;;;6.50;5.60;;;;;;;24.03;37.40;101124.84;3584037;39;20444;-67
2023/06/13 07:05:18;;;;;;;6.53;4.80;;;;;;;24.13;37.22;101126.56;3571856;40;20296;-68
2023/06/13 07:07:44;;;;;;;7.40;5.00;;;;;;;23.96;37.53;101071.69;3581040;40;20426;-68
2023/06/13 07:10:11;;;;;;;5.40;4.63;;;;;;;24.42;36.91;101125.97;3582449;39;20052;-68
2023/06/13 07:12:39;;;;;;;7.65;5.25;;;;;;;24.46;36.72;101127.34;3586517;40;20098;-68
2023/06/13 07:15:05;;;;;;;7.88;5.20;;;;;;;24.54;36.27;101124.53;3586259;40;20116;-68
2023/06/13 07:17:31;;;;;;;7.43;4.75;;;;;;;24.49;35.98;101105.84;3582661;39;20048;-69
2023/06/13 07:19:57;;;;;;;7.05;4.55;;;;;;;24.66;36.54;101103.00;3582405;39;20496;-67
2023/06/13 07:22:23;;;;;;;6.95;4.68;;;;;;;24.95;35.65;101138.91;3583018;40;20414;-68
2023/06/13 07:24:48;;;;;;;8.13;4.72;;;;;;;24.97;35.95;101138.75;3581666;40;20056;-68
2023/06/13 07:27:17;;;;;;;6.20;4.80;;;;;;;25.12;35.50;101134.22;3581803;40;20063;-68
2023/06/13 07:29:44;;;;;;;6.75;4.88;;;;;;;25.22;35.75;101137.56;3584497;39;20052;-68
2023/06/13 07:32:10;;;;;;;6.30;4.95;;;;;;;25.28;35.49;101133.25;3585614;39;20180;-69
2023/06/13 07:34:35;;;;;;;7.13;5.20;;;;;;;25.29;35.57;101123.94;3586070;40;20402;-69
2023/06/13 07:37:03;;;;;;;7.70;4.80;;;;;;;25.35;35.73;101134.22;3580271;40;20147;-69
2023/06/13 07:39:29;;;;;;;6.35;4.20;;;;;;;25.51;34.84;101132.38;3583536;39;20044;-69
2023/06/13 07:41:54;;;;;;;6.32;5.20;;;;;;;25.57;34.06;101134.38;3570718;39;20392;-69
2023/06/13 07:44:24;;;;;;;6.03;5.40;;;;;;;25.64;33.59;101136.19;3582639;39;20060;-69
2023/06/13 07:46:50;;;;;;;9.90;5.28;;;;;;;25.75;34.06;101134.88;3585305;40;20047;-69
2023/06/13 07:49:15;;;;;;;9.27;5.00;;;;;;;25.82;34.03;101130.38;3585547;40;20290;-69
2023/06/13 07:51:41;;;;;;;5.40;4.90;;;;;;;25.84;34.02;101125.53;3585253;39;20067;-68
2023/06/13 07:54:07;;;;;;;7.82;5.28;;;;;;;26.03;33.87;101137.03;3583745;40;20056;-69
2023/06/13 07:56:33;;;;;;;5.35;4.85;;;;;;;26.21;33.55;101139.44;3586246;40;20052;-69
2023/06/13 07:58:58;;;;;;;7.90;4.88;;;;;;;26.31;34.27;101140.84;3585373;39;20337;-69
2023/06/13 08:01:24;;;;;;;7.15;5.22;;;;;;;26.31;34.36;101124.31;3584752;40;20068;-68
2023/06/13 08:03:50;;;;;;;6.45;5.10;;;;;;;26.57;33.46;101134.03;3585187;40;20056;-68
2023/06/13 08:06:16;;;;;;;8.38;5.57;;;;;;;26.69;32.78;101142.66;3586140;40;20059;-68
2023/06/13 08:08:42;;;;;;;9.35;5.13;;;;;;;26.66;33.66;101134.78;3587585;40;20056;-68
2023/06/13 08:11:07;;;;;;;7.90;4.82;;;;;;;26.84;33.94;101137.97;3586410;40;20516;-69
2023/06/13 08:13:33;;;;;;;5.88;4.72;;;;;;;26.26;32.92;101026.72;3585266;39;20237;-69
2023/06/13 08:16:01;;;;;;;9.02;5.68;;;;;;;26.92;32.83;101142.50;3581326;40;20052;-69
2023/06/13 08:18:26;;;;;;;6.22;5.63;;;;;;;26.79;32.63;101115.63;3585196;40;20095;-69
2023/06/13 08:20:52;;;;;;;6.38;4.82;;;;;;;27.09;33.50;101139.31;3584617;39;20059;-70
2023/06/13 08:23:18;;;;;;;8.05;5.20;;;;;;;27.09;33.14;101132.94;3584829;40;20402;-68
2023/06/13 08:25:44;;;;;;;7.50;4.47;;;;;;;27.23;32.79;101126.53;3585212;40;20048;-69
2023/06/13 08:28:11;;;;;;;6.70;4.63;;;;;;;27.44;33.99;101133.13;3583991;39;20117;-69
2023/06/13 08:30:37;;;;;;;9.82;4.78;;;;;;;27.54;32.68;101142.75;3583691;39;20048;-68
2023/06/13 08:33:03;;;;;;;7.18;5.15;;;;;;;27.38;32.42;101098.00;3583751;40;20128;-70
2023/06/13 08:35:29;;;;;;;6.78;4.90;;;;;;;27.57;32.97;101135.16;3584369;39;20405;-70
2023/06/13 08:37:55;;;;;;;9.80;4.55;;;;;;;27.72;32.55;101124.84;3582117;39;20059;-68
2023/06/13 08:40:21;;;;;;;6.57;4.68;;;;;;;27.82;31.97;101127.31;3583006;39;20058;-69
2023/06/13 08:42:48;;;;;;;9.77;4.68;;;;;;;27.79;31.77;101119.41;3584867;39;20400;-69
2023/06/13 08:45:15;;;;;;;7.55;4.80;;;;;;;27.73;31.84;101085.97;3585135;40;20048;-68
2023/06/13 08:47:46;;;;;;;6.40;4.70;;;;;;;28.17;31.98;101119.88;3586453;40;20052;-69
2023/06/13 08:50:18;;;;;;;6.95;4.60;;;;;;;28.31;32.32;101121.66;3587385;39;20292;-69
2023/06/13 08:52:48;;;;;;;10.15;4.38;;;;;;;28.17;30.16;101064.59;3584473;40;20071;-69
2023/06/13 08:55:22;;;;;;;5.72;4.35;;;;;;;28.56;29.62;101107.34;3581170;39;20060;-69
2023/06/13 08:57:53;;;;;;;6.13;4.82;;;;;;;28.66;29.09;101110.56;3580635;40;20068;-69
2023/06/13 09:00:21;;;;;;;6.15;5.03;;;;;;;28.76;28.79;101113.78;3583762;39;20055;-67
2023/06/13 09:02:46;;;;;;;7.03;5.03;;;;;;;28.64;29.06;101076.72;3580146;40;20062;-68
2023/06/13 09:05:15;;;;;;;8.43;4.55;;;;;;;28.65;28.82;101106.13;3581156;40;20403;-69
2023/06/13 09:07:42;;;;;;;8.73;4.82;;;;;;;28.62;29.89;101089.94;3578663;40;20304;-70
2023/06/13 09:10:12;;;;;;;7.97;5.15;;;;;;;29.01;30.14;101108.56;3583638;39;20060;-69
2023/06/13 09:12:45;;;;;;;7.68;4.80;;;;;;;28.97;29.80;101112.81;3580779;40;20055;-69
2023/06/13 09:15:11;;;;;;;5.63;4.90;;;;;;;29.00;29.48;101097.69;3580990;40;20286;-69
2023/06/13 09:17:38;;;;;;;5.50;4.55;;;;;;;28.86;29.27;101075.53;3580579;40;20048;-70
2023/06/13 09:20:07;;;;;;;7.28;4.88;;;;;;;28.98;28.63;101055.53;3580381;40;20413;-69
2023/06/13 09:22:34;;;;;;;5.57;4.40;;;;;;;29.47;28.32;101102.25;3583022;39;20490;-68
2023/06/13 09:25:01;;;;;;;4.65;4.10;;;;;;;29.61;27.56;101108.69;3581553;40;20365;-69
2023/06/13 09:27:27;;;;;;;5.00;4.47;;;;;;;29.62;27.60;101113.13;3580135;40;20048;-69
2023/06/13 09:29:53;;;;;;;5.90;4.47;;;;;;;28.73;27.45;100925.22;3580160;40;20080;-69
2023/06/13 09:32:20;;;;;;;6.38;4.55;;;;;;;29.60;26.60;101079.25;3579139;39;20048;-69
2023/06/13 09:34:49;;;;;;;4.97;4.20;;;;;;;29.75;28.21;101096.53;3580972;39;20055;-69
2023/06/13 09:37:15;;;;;;;5.80;4.30;;;;;;;30.04;28.51;101089.66;3572504;40;20063;-69
2023/06/13 09:39:55;;;;;;;5.32;4.30;;;;;;;30.33;26.17;101101.34;3579893;40;20459;-69
2023/06/13 09:42:23;;;;;;;4.38;3.97;;;;;;;30.31;25.27;101092.38;3581126;40;20055;-69
2023/06/13 09:44:52;;;;;;;10.25;4.60;;;;;;;29.92;25.26;101062.81;3583322;40;20549;-69
2023/06/13 09:47:24;;;;;;;6.78;4.50;;;;;;;30.03;26.64;101095.41;3576975;40;20552;-69
2023/06/13 09:49:57;;;;;;;5.38;4.50;;;;;;;30.01;26.69;101106.72;3581807;40;20068;-69
2023/06/13 09:52:28;;;;;;;;;;;;;;;30.17;25.91;101105.41;3582578;39;20099;-68
2023/06/13 09:54:54;;;;;;;11.18;4.35;;;;;;;30.30;25.27;101099.84;3580657;40;19932;-68
2023/06/13 09:57:21;;;;;;;11.52;4.68;;;;;;;30.15;25.51;101065.94;3581565;40;20302;-68
2023/06/13 09:59:50;;;;;;;4.35;3.92;;;;;;;30.35;25.89;101084.44;3575814;40;20071;-68
2023/06/13 10:02:19;;;;;;;5.97;4.03;;;;;;;30.71;25.58;101094.97;3580359;40;20059;-69
2023/06/13 10:04:49;;;;;;;4.35;3.95;;;;;;;30.81;25.55;101080.66;3579980;39;20117;-70
2023/06/13 10:07:15;;;;;;;9.80;4.40;;;;;;;30.90;25.65;101087.66;3572123;40;20048;-70
2023/06/13 10:09:41;;;;;;;4.22;3.67;;;;;;;31.12;23.78;101091.78;3583837;39;20052;-70
2023/06/13 10:12:14;;;;;;;5.05;4.00;;;;;;;31.23;23.74;101096.59;3584029;40;20524;-69
2023/06/13 10:14:45;;;;;;;7.97;5.15;;;;;;;31.27;24.39;101087.81;3582693;40;20667;-69
2023/06/13 10:17:18;;;;;;;5.57;4.00;;;;;;;31.25;22.70;101092.75;3580200;40;20041;-70
2023/06/13 10:19:53;;;;;;;4.97;4.10;;;;;;;30.67;22.93;101000.22;3582564;39;20060;-69
2023/06/13 10:22:20;;;;;;;4.57;3.70;;;;;;;31.29;23.84;101091.22;3579704;40;20099;-70
2023/06/13 10:24:51;;;;;;;5.93;3.85;;;;;;;31.49;24.31;101083.59;3579071;40;20048;-70
2023/06/13 10:27:23;;;;;;;5.07;4.20;;;;;;;31.63;23.00;101067.66;3580388;40;20068;-70
2023/06/13 10:30:31;;;;;;;6.28;4.20;;;;;;;31.77;22.63;101098.97;3581491;39;20060;-69
2023/06/13 10:33:53;;;;;;;7.35;3.90;;;;;;;31.95;22.47;101087.06;3577199;39;20056;-69
2023/06/13 10:36:34;;;;;;;4.95;3.85;;;;;;;31.98;23.25;101094.94;3569437;40;20055;-69
2023/06/13 10:39:53;;;;;;;4.30;3.90;;;;;;;32.11;22.66;101090.06;3579179;40;20300;-69
2023/06/13 10:42:24;;;;;;;5.28;3.95;;;;;;;32.14;22.32;101095.19;3580498;40;20056;-69
2023/06/13 10:45:07;;;;;;;5.82;3.88;;;;;;;32.25;22.60;101087.13;3579684;40;20472;-69
2023/06/13 10:47:32;;;;;;;;;;;;;;;32.28;22.75;101095.00;3583218;39;20134;-69
2023/06/13 10:50:02;;;;;;;6.45;4.18;;;;;;;32.26;21.70;101098.03;3581807;39;19939;-69
2023/06/13 10:52:29;;;;;;;4.43;4.03;;;;;;;32.02;22.46;101087.81;3581701;40;20145;-69
2023/06/13 10:54:58;;;;;;;4.53;3.70;;;;;;;32.08;22.29;101087.75;3586304;40;20056;-69
2023/06/13 10:57:49;;;;;;;5.47;4.00;;;;;;;31.78;22.49;101083.97;3581852;40;20063;-68
2023/06/13 11:00:39;;;;;;;10.15;4.00;;;;;;;32.05;21.59;101095.72;3582263;39;20059;-68
2023/06/13 11:03:11;;;;;;;5.93;3.70;;;;;;;32.13;22.05;101076.78;3580136;39;20058;-69
2023/06/13 11:05:49;;;;;;;6.57;4.00;;;;;;;31.97;20.96;101074.63;3580167;40;20079;-69
2023/06/13 11:08:24;;;;;;;5.97;3.90;;;;;;;32.13;21.28;101071.22;3581397;40;20394;-69
2023/06/13 11:10:53;;;;;;;7.40;4.00;;;;;;;32.41;21.19;101071.75;3579046;40;20127;-69
2023/06/13 11:13:33;;;;;;;5.30;4.00;;;;;;;32.56;21.46;101061.94;3578748;40;20079;-70
2023/06/13 11:16:38;;;;;;;3.97;3.53;;;;;;;32.74;20.18;101071.34;3578932;39;20051;-70
2023/06/13 11:19:16;;;;;;;6.30;3.63;;;;;;;32.88;20.70;101067.28;3579447;40;20056;-69
2023/06/13 11:22:00;;;;;;;6.35;4.13;;;;;;;33.03;20.16;101064.94;3579630;40;20052;-69
2023/06/13 11:24:32;;;;;;;4.55;3.38;;;;;;;33.12;20.63;101061.81;3581168;39;20383;-68
2023/06/13 11:27:00;;;;;;;5.40;3.42;;;;;;;33.42;21.10;101061.72;3584420;39;20048;-69
2023/06/13 11:29:32;;;;;;;5.80;3.75;;;;;;;33.56;20.57;101068.81;3581034;39;20066;-69
2023/06/13 11:32:03;;;;;;;5.00;3.60;;;;;;;33.70;19.41;101063.84;3581590;40;20117;-69
2023/06/13 11:34:34;;;;;;;6.45;4.00;;;;;;;33.85;19.61;101061.41;3579391;40;20477;-68